Terminal Aerodrome Forecast
Issued by NWS

Home | Current Version | Previous Version | Text Only | Print | Product List | Glossary On
Versions: 1 2 3 4 5 6 7 8 9 10 11 12 13 14 15 16 17 18 19 20 21
000
FTUS45 KRIW 182300
TAFPNA
TAF
KPNA 182320Z 1900/1924 VRB04KT P6SM SCT035
     FM190400 VRB05KT P6SM VCSH SCT025 BKN035
     FM190900 VRB03KT P6SM VCFG FEW005 SCT040
     FM191500 VRB05KT P6SM FEW010 SCT040
     FM192200 VRB04KT P6SM VCSH FEW025 BKN040
      AMD LTD TO CLD VIS AND WIND=

USA.gov is the U.S. government's official web portal to all federal, state and local government web resources and services.